Time;durP1;ratioP1;P1;durP2;ratioP2;P2;SDS_P1;SDS_P2;PMS_P1;PMS_P2;Temp;Humidity;BMP_temperature;BMP_pressure;BME280_temperature;BME280_humidity;BME280_pressure;Samples;Min_cycle;Max_cycle;Signal;HPM_P1;HPM_P2
2023/08/04 00:01:58;;;;;;;5.38;1.23;;;23.50;93.70;;;;;;7409230;19;19922;-77
2023/08/04 00:04:24;;;;;;;7.70;2.03;;;23.50;93.80;;;;;;7408073;19;20262;-78
2023/08/04 00:06:50;;;;;;;6.60;1.35;;;23.40;94.10;;;;;;7410756;19;19971;-77
2023/08/04 00:09:16;;;;;;;8.07;1.90;;;23.40;94.60;;;;;;7406714;19;19923;-78
2023/08/04 00:11:42;;;;;;;9.43;1.60;;;23.20;96.30;;;;;;7409350;19;20075;-77
2023/08/04 00:14:09;;;;;;;10.57;1.95;;;23.00;96.90;;;;;;7408710;19;19943;-77
2023/08/04 00:16:35;;;;;;;10.43;2.17;;;22.60;99.50;;;;;;7409933;19;19925;-77
2023/08/04 00:19:02;;;;;;;9.90;2.25;;;22.40;99.90;;;;;;7411914;19;19922;-78
2023/08/04 00:21:28;;;;;;;12.55;2.90;;;22.10;99.90;;;;;;7414084;19;19932;-78
2023/08/04 00:23:58;;;;;;;8.45;1.58;;;21.60;99.90;;;;;;7416645;19;19915;-78
2023/08/04 00:26:24;;;;;;;9.57;2.13;;;21.60;99.90;;;;;;7418343;19;19933;-78
2023/08/04 00:28:50;;;;;;;8.55;1.95;;;21.60;99.90;;;;;;7420838;19;19922;-79
2023/08/04 00:31:16;;;;;;;8.60;2.30;;;21.60;99.90;;;;;;7422782;19;19918;-79
2023/08/04 00:33:42;;;;;;;9.52;2.47;;;21.60;99.90;;;;;;7421722;19;19922;-78
2023/08/04 00:36:08;;;;;;;12.35;1.98;;;21.60;99.90;;;;;;7417122;19;19926;-78
2023/08/04 00:38:34;;;;;;;10.90;2.30;;;21.60;99.90;;;;;;7416581;19;20347;-78
2023/08/04 00:41:00;;;;;;;10.13;1.83;;;21.60;99.90;;;;;;7420354;19;19919;-79
2023/08/04 00:43:25;;;;;;;11.88;2.05;;;21.60;99.90;;;;;;7417665;19;19965;-80
2023/08/04 00:45:52;;;;;;;10.10;2.30;;;21.60;99.90;;;;;;7422218;19;20625;-79
2023/08/04 00:48:19;;;;;;;10.82;2.55;;;21.50;99.90;;;;;;7422304;19;19919;-79
2023/08/04 00:50:45;;;;;;;12.38;2.60;;;21.50;99.90;;;;;;7422318;19;19947;-80
2023/08/04 00:53:11;;;;;;;8.48;1.98;;;21.40;99.90;;;;;;7420017;19;19915;-79
2023/08/04 00:55:37;;;;;;;10.27;2.15;;;21.50;99.90;;;;;;7421979;19;19935;-79
2023/08/04 00:58:03;;;;;;;12.95;2.90;;;21.50;99.90;;;;;;7417473;19;20253;-80
2023/08/04 01:00:29;;;;;;;12.50;2.40;;;21.40;99.90;;;;;;7418905;19;19918;-79
2023/08/04 01:02:55;;;;;;;13.98;2.65;;;21.40;99.90;;;;;;7397222;19;19918;-79
2023/08/04 01:05:26;;;;;;;9.27;2.50;;;21.40;99.90;;;;;;7410726;19;19918;-79
2023/08/04 01:08:18;;;;;;;8.23;2.10;;;21.40;99.90;;;;;;7420289;19;19919;-79
2023/08/04 01:10:55;;;;;;;8.05;1.98;;;21.30;99.90;;;;;;7420548;19;19918;-80
2023/08/04 01:13:22;;;;;;;10.45;2.17;;;21.30;99.90;;;;;;7416777;19;19918;-78
2023/08/04 01:16:05;;;;;;;12.68;2.10;;;21.20;99.90;;;;;;7406749;19;19982;-78
2023/08/04 01:18:32;;;;;;;10.70;2.50;;;21.20;99.90;;;;;;7402445;19;19918;-78
2023/08/04 01:21:04;;;;;;;13.07;2.80;;;21.20;99.90;;;;;;7414105;19;19974;-79
2023/08/04 01:23:29;;;;;;;11.50;2.78;;;21.20;99.90;;;;;;7409101;19;19911;-78
2023/08/04 01:25:56;;;;;;;7.38;2.30;;;21.20;99.90;;;;;;7412290;19;19907;-78
2023/08/04 01:28:23;;;;;;;10.80;2.28;;;21.30;99.90;;;;;;7413271;19;20249;-79
2023/08/04 01:30:54;;;;;;;9.75;2.00;;;21.40;99.90;;;;;;7415557;19;19931;-79
2023/08/04 01:33:21;;;;;;;9.70;2.03;;;21.40;99.90;;;;;;7418357;19;19922;-79
2023/08/04 01:35:47;;;;;;;7.85;2.05;;;21.30;99.90;;;;;;7407608;19;19922;-78
2023/08/04 01:38:13;;;;;;;7.05;1.90;;;21.30;99.90;;;;;;7410644;19;19930;-78
2023/08/04 01:40:40;;;;;;;8.98;1.80;;;21.40;99.90;;;;;;7410461;19;19918;-79
2023/08/04 01:43:06;;;;;;;9.07;1.80;;;21.30;99.90;;;;;;7410515;19;19923;-79
2023/08/04 01:45:32;;;;;;;9.55;2.15;;;21.30;99.90;;;;;;7410617;19;19919;-78
2023/08/04 01:47:57;;;;;;;7.90;1.67;;;21.20;99.90;;;;;;7412951;19;19919;-78
2023/08/04 01:50:24;;;;;;;4.72;1.27;;;21.30;99.90;;;;;;7406744;19;19927;-78
2023/08/04 01:52:51;;;;;;;5.95;1.50;;;21.30;95.20;;;;;;7413232;19;19961;-79
2023/08/04 01:55:17;;;;;;;5.75;1.45;;;21.20;91.70;;;;;;7406528;19;20331;-79
2023/08/04 01:57:42;;;;;;;5.45;1.23;;;21.20;90.10;;;;;;7405819;19;19939;-78
2023/08/04 02:00:11;;;;;;;4.07;0.85;;;21.20;82.80;;;;;;7404646;19;19935;-78
2023/08/04 02:02:36;;;;;;;5.35;0.85;;;21.20;79.20;;;;;;7412200;19;19922;-78
2023/08/04 02:05:02;;;;;;;5.35;1.00;;;21.20;70.20;;;;;;7414439;19;19918;-79
2023/08/04 02:07:28;;;;;;;4.88;0.90;;;21.20;67.60;;;;;;7378687;19;19938;-78
2023/08/04 02:09:54;;;;;;;4.13;0.80;;;21.10;68.90;;;;;;7403255;19;19911;-78
2023/08/04 02:12:20;;;;;;;4.18;1.00;;;21.00;68.30;;;;;;7400673;19;19925;-77
2023/08/04 02:14:45;;;;;;;4.53;1.00;;;21.00;68.80;;;;;;7403094;19;19915;-77
2023/08/04 02:17:12;;;;;;;4.50;0.90;;;20.90;71.90;;;;;;7404663;19;19918;-78
2023/08/04 02:19:38;;;;;;;3.90;0.90;;;21.00;66.10;;;;;;7400127;19;19921;-78
2023/08/04 02:22:04;;;;;;;3.33;0.85;;;21.00;62.00;;;;;;7397909;19;19926;-78
2023/08/04 02:24:30;;;;;;;4.28;0.80;;;21.00;63.50;;;;;;7401320;19;19918;-77
2023/08/04 02:26:55;;;;;;;3.38;0.60;;;20.90;60.50;;;;;;7405054;19;19938;-77
2023/08/04 02:29:21;;;;;;;2.63;0.60;;;20.90;64.00;;;;;;7379378;19;19937;-79
2023/08/04 02:31:48;;;;;;;6.15;1.13;;;20.80;62.70;;;;;;7400296;19;19922;-77
2023/08/04 02:34:14;;;;;;;4.68;1.10;;;20.70;68.00;;;;;;7398123;19;19914;-77
2023/08/04 02:36:40;;;;;;;2.50;0.90;;;20.60;68.10;;;;;;7394919;19;19952;-78
2023/08/04 02:39:05;;;;;;;2.97;0.70;;;20.50;66.60;;;;;;7398188;19;19965;-76
2023/08/04 02:41:33;;;;;;;3.30;0.85;;;20.50;65.40;;;;;;7400558;19;19926;-77
2023/08/04 02:44:00;;;;;;;3.42;0.90;;;20.50;65.10;;;;;;7368260;19;19926;-78
2023/08/04 02:46:25;;;;;;;4.70;0.80;;;20.40;65.50;;;;;;7398050;19;19951;-78
2023/08/04 02:48:52;;;;;;;4.85;1.00;;;20.30;64.30;;;;;;7379761;19;19918;-77
2023/08/04 02:51:18;;;;;;;4.93;0.70;;;20.20;64.90;;;;;;7401180;19;20330;-77
2023/08/04 02:53:45;;;;;;;5.03;0.80;;;20.20;65.80;;;;;;7392387;19;19922;-77
2023/08/04 02:56:16;;;;;;;3.30;0.90;;;20.10;65.20;;;;;;7389754;19;19922;-77
2023/08/04 02:58:43;;;;;;;4.20;0.85;;;20.10;64.20;;;;;;7395511;19;19930;-77
2023/08/04 03:01:09;;;;;;;4.10;0.70;;;20.10;65.30;;;;;;7395459;19;19915;-77
2023/08/04 03:03:35;;;;;;;3.90;0.77;;;20.00;66.00;;;;;;7398017;19;19975;-78
2023/08/04 03:06:01;;;;;;;4.38;0.98;;;20.00;66.10;;;;;;7400552;19;20266;-76
2023/08/04 03:08:28;;;;;;;5.25;0.90;;;20.00;66.10;;;;;;7401038;19;20032;-79
2023/08/04 03:10:55;;;;;;;4.40;0.85;;;19.90;65.60;;;;;;7403368;19;19927;-77
2023/08/04 03:13:21;;;;;;;4.30;0.82;;;20.00;64.70;;;;;;7400547;19;19925;-77
2023/08/04 03:15:53;;;;;;;3.45;0.70;;;19.90;65.00;;;;;;7402747;19;19919;-77
2023/08/04 03:18:18;;;;;;;5.05;1.20;;;19.90;65.00;;;;;;7403128;19;19935;-78
2023/08/04 03:20:44;;;;;;;2.42;0.82;;;19.80;65.60;;;;;;7401647;19;20281;-77
2023/08/04 03:23:10;;;;;;;4.57;0.77;;;19.80;65.70;;;;;;7369824;19;19949;-77
2023/08/04 03:25:36;;;;;;;4.35;1.05;;;19.80;65.40;;;;;;7401621;19;19926;-77
2023/08/04 03:28:02;;;;;;;5.68;0.80;;;19.70;65.50;;;;;;7402062;19;19922;-78
2023/08/04 03:30:27;;;;;;;4.63;0.65;;;19.70;66.00;;;;;;7407155;19;19931;-78
2023/08/04 03:32:53;;;;;;;5.55;1.15;;;19.60;66.80;;;;;;7404582;19;19922;-77
2023/08/04 03:35:19;;;;;;;7.05;1.58;;;19.50;66.60;;;;;;7403583;19;20469;-77
2023/08/04 03:37:45;;;;;;;4.63;0.80;;;19.50;66.10;;;;;;7406125;19;19944;-77
2023/08/04 03:40:11;;;;;;;3.63;0.82;;;19.50;66.60;;;;;;7404624;19;19918;-78
2023/08/04 03:42:38;;;;;;;3.08;0.80;;;19.50;65.90;;;;;;7407972;19;19926;-76
2023/08/04 03:45:06;;;;;;;3.75;0.85;;;19.50;65.70;;;;;;7403253;19;19930;-77
2023/08/04 03:47:32;;;;;;;3.53;0.80;;;19.60;65.70;;;;;;7405672;19;19915;-77
2023/08/04 03:49:58;;;;;;;5.97;1.30;;;19.50;65.50;;;;;;7403451;19;19925;-77
2023/08/04 03:52:24;;;;;;;3.22;0.70;;;19.50;65.80;;;;;;7404340;19;20336;-78
2023/08/04 03:54:50;;;;;;;2.92;0.80;;;19.50;66.10;;;;;;7406766;19;19926;-78
2023/08/04 03:57:15;;;;;;;3.13;0.68;;;19.50;66.00;;;;;;7406689;19;19919;-78
2023/08/04 03:59:41;;;;;;;7.28;1.02;;;19.40;65.50;;;;;;7406785;19;19918;-76
2023/08/04 04:02:07;;;;;;;3.80;1.15;;;19.40;66.10;;;;;;7373612;19;20046;-78
2023/08/04 04:04:33;;;;;;;4.85;0.80;;;19.30;66.60;;;;;;7406107;19;19927;-78
2023/08/04 04:06:59;;;;;;;4.38;0.60;;;19.20;66.50;;;;;;7406995;19;19919;-77
2023/08/04 04:09:24;;;;;;;4.72;0.77;;;19.20;66.90;;;;;;7369805;19;19907;-78
2023/08/04 04:11:50;;;;;;;4.03;0.93;;;19.10;67.40;;;;;;7405397;19;20364;-77
2023/08/04 04:14:16;;;;;;;7.22;1.00;;;19.00;68.00;;;;;;7401445;19;19938;-77
2023/08/04 04:16:42;;;;;;;4.38;0.98;;;19.00;68.30;;;;;;7403521;19;19936;-78
2023/08/04 04:19:07;;;;;;;6.03;0.80;;;18.90;68.40;;;;;;7404247;19;19919;-77
2023/08/04 04:21:34;;;;;;;4.85;0.77;;;18.90;68.70;;;;;;7406203;19;19990;-77
2023/08/04 04:23:59;;;;;;;7.22;1.17;;;18.80;69.20;;;;;;7403126;19;19910;-77
2023/08/04 04:26:25;;;;;;;5.70;1.00;;;18.90;69.00;;;;;;7403437;19;19911;-78
2023/08/04 04:28:52;;;;;;;7.32;1.20;;;18.80;69.70;;;;;;7405115;19;19916;-78
2023/08/04 04:31:18;;;;;;;5.65;1.17;;;18.70;69.70;;;;;;7401280;19;19918;-77
2023/08/04 04:33:44;;;;;;;5.65;0.85;;;18.70;69.90;;;;;;7401164;19;19942;-78
2023/08/04 04:36:09;;;;;;;8.02;0.90;;;18.60;70.20;;;;;;7383169;19;19919;-77
2023/08/04 04:38:36;;;;;;;6.07;1.17;;;18.60;70.70;;;;;;7402236;19;20274;-77
2023/08/04 04:41:02;;;;;;;5.88;1.00;;;18.60;71.00;;;;;;7405312;19;19915;-78
2023/08/04 04:43:29;;;;;;;7.78;1.00;;;18.60;71.10;;;;;;7404147;19;19914;-77
2023/08/04 04:45:55;;;;;;;;;;;18.60;71.10;;;;;;7405390;19;19990;-77
2023/08/04 04:48:23;;;;;;;4.35;0.90;;;18.60;71.10;;;;;;7380650;19;20031;-77
2023/08/04 04:50:51;;;;;;;4.13;0.80;;;18.60;71.50;;;;;;7379743;19;19910;-77
2023/08/04 04:53:17;;;;;;;5.63;1.25;;;18.60;71.20;;;;;;7401190;19;20381;-77
2023/08/04 04:55:43;;;;;;;7.90;1.02;;;18.60;71.80;;;;;;7400573;19;19923;-77
2023/08/04 04:58:09;;;;;;;4.00;1.10;;;18.60;71.30;;;;;;7400960;19;19934;-77
2023/08/04 05:00:35;;;;;;;5.07;1.10;;;18.60;71.50;;;;;;7402200;19;20368;-78
2023/08/04 05:03:06;;;;;;;4.85;1.30;;;18.60;71.50;;;;;;7403990;19;19919;-77
2023/08/04 05:05:32;;;;;;;6.32;1.20;;;18.60;71.10;;;;;;7403319;19;19942;-77
2023/08/04 05:07:58;;;;;;;4.63;1.50;;;18.60;71.50;;;;;;7403358;19;19914;-77
2023/08/04 05:10:25;;;;;;;6.10;1.05;;;18.60;71.60;;;;;;7399369;19;19926;-77
2023/08/04 05:12:51;;;;;;;4.85;1.05;;;18.60;71.30;;;;;;7400799;19;19946;-78
2023/08/04 05:15:17;;;;;;;6.07;1.30;;;18.60;71.90;;;;;;7401272;19;20288;-77
2023/08/04 05:17:44;;;;;;;5.75;1.15;;;18.60;71.40;;;;;;7402011;19;20300;-77
2023/08/04 05:20:11;;;;;;;6.30;1.30;;;18.60;71.10;;;;;;7402320;19;19947;-77
2023/08/04 05:22:37;;;;;;;7.13;0.88;;;18.60;71.50;;;;;;7406070;19;19922;-78
2023/08/04 05:25:05;;;;;;;6.40;1.10;;;18.70;70.80;;;;;;7403914;19;19919;-77
2023/08/04 05:27:31;;;;;;;6.63;1.30;;;18.70;71.40;;;;;;7405473;19;20007;-78
2023/08/04 05:29:57;;;;;;;7.55;1.83;;;18.80;70.90;;;;;;7406472;19;19915;-77
2023/08/04 05:32:23;;;;;;;6.00;1.10;;;18.80;70.70;;;;;;7404904;19;19939;-77
2023/08/04 05:34:48;;;;;;;4.68;0.90;;;18.80;70.50;;;;;;7406030;19;19915;-76
2023/08/04 05:37:14;;;;;;;4.57;1.08;;;18.80;70.80;;;;;;7401207;19;19926;-77
2023/08/04 05:39:40;;;;;;;3.47;0.82;;;18.90;70.30;;;;;;7407940;19;19919;-77
2023/08/04 05:42:06;;;;;;;4.10;0.88;;;19.00;70.20;;;;;;7405865;19;19928;-77
2023/08/04 05:44:32;;;;;;;5.78;1.33;;;19.10;69.30;;;;;;7406699;19;19918;-78
2023/08/04 05:46:59;;;;;;;4.88;0.85;;;19.10;69.00;;;;;;7407804;19;19931;-77
2023/08/04 05:49:25;;;;;;;3.33;0.80;;;19.20;68.90;;;;;;7404310;19;19925;-77
2023/08/04 05:51:51;;;;;;;8.05;1.30;;;19.30;68.40;;;;;;7403032;19;20329;-77
2023/08/04 05:54:17;;;;;;;4.50;0.88;;;19.40;68.40;;;;;;7403576;19;19991;-78
2023/08/04 05:56:43;;;;;;;6.10;1.30;;;19.40;68.10;;;;;;7401900;19;19911;-78
2023/08/04 05:59:09;;;;;;;5.88;1.15;;;19.40;68.10;;;;;;7402781;19;19928;-77
2023/08/04 06:01:34;;;;;;;4.97;0.93;;;19.40;67.80;;;;;;7409091;19;19918;-78
2023/08/04 06:04:02;;;;;;;4.50;0.95;;;19.40;67.50;;;;;;7405532;19;19954;-77
2023/08/04 06:06:28;;;;;;;4.78;0.88;;;19.40;67.60;;;;;;7407537;19;19910;-78
2023/08/04 06:08:54;;;;;;;6.47;1.13;;;19.50;67.40;;;;;;7409498;19;19974;-76
2023/08/04 06:11:21;;;;;;;7.05;1.20;;;19.50;67.70;;;;;;7406793;19;19918;-77
2023/08/04 06:13:47;;;;;;;;;;;19.60;67.60;;;;;;7412610;19;19962;-77
2023/08/04 06:16:13;;;;;;;3.97;0.95;;;19.70;67.60;;;;;;7405468;19;19919;-78
2023/08/04 06:18:40;;;;;;;4.30;0.90;;;19.70;66.70;;;;;;7408674;19;20536;-77
2023/08/04 06:21:06;;;;;;;4.05;1.10;;;19.60;66.70;;;;;;7403205;19;20312;-78
2023/08/04 06:23:32;;;;;;;6.47;1.30;;;19.60;66.80;;;;;;7406655;19;20334;-78
2023/08/04 06:25:58;;;;;;;5.28;1.55;;;19.70;67.40;;;;;;7406001;19;19917;-78
2023/08/04 06:28:24;;;;;;;3.85;1.00;;;19.80;67.30;;;;;;7405569;19;19911;-77
2023/08/04 06:30:50;;;;;;;7.15;1.50;;;19.90;67.00;;;;;;7402644;19;19919;-77
2023/08/04 06:33:16;;;;;;;5.38;1.00;;;20.00;66.10;;;;;;7405460;19;19918;-78
2023/08/04 06:35:44;;;;;;;7.38;1.13;;;20.00;66.10;;;;;;7406403;19;19955;-78
2023/08/04 06:38:10;;;;;;;5.00;1.10;;;20.00;65.80;;;;;;7404588;19;19918;-77
2023/08/04 06:40:36;;;;;;;4.63;1.23;;;20.10;65.60;;;;;;7387659;19;19911;-77
2023/08/04 06:43:02;;;;;;;5.72;1.33;;;20.20;65.30;;;;;;7405462;19;19914;-78
2023/08/04 06:45:28;;;;;;;7.47;1.30;;;20.30;65.30;;;;;;7397178;19;19914;-78
2023/08/04 06:47:54;;;;;;;7.78;1.40;;;20.30;65.00;;;;;;7407140;19;19930;-78
2023/08/04 06:50:20;;;;;;;7.05;1.40;;;20.20;65.10;;;;;;7403683;19;19927;-76
2023/08/04 06:52:47;;;;;;;4.88;1.00;;;20.40;65.20;;;;;;7408766;19;20243;-77
2023/08/04 06:55:13;;;;;;;8.15;1.23;;;20.40;64.80;;;;;;7383431;19;19954;-78
2023/08/04 06:57:39;;;;;;;9.68;1.60;;;20.50;64.80;;;;;;7404777;19;19923;-77
2023/08/04 07:00:05;;;;;;;7.90;1.48;;;20.60;64.70;;;;;;7369655;19;20635;-77
2023/08/04 07:02:32;;;;;;;7.28;1.20;;;20.70;64.50;;;;;;7403678;19;19914;-79
2023/08/04 07:04:58;;;;;;;5.22;1.35;;;20.70;64.10;;;;;;7410227;19;19939;-78
2023/08/04 07:07:24;;;;;;;6.70;1.23;;;20.70;63.50;;;;;;7411543;19;19939;-78
2023/08/04 07:09:50;;;;;;;7.32;1.90;;;20.80;63.40;;;;;;7415560;19;19934;-77
2023/08/04 07:12:16;;;;;;;4.55;1.15;;;20.90;63.60;;;;;;7414990;19;19922;-78
2023/08/04 07:14:42;;;;;;;5.25;1.10;;;21.00;63.30;;;;;;7410068;19;19915;-78
2023/08/04 07:17:07;;;;;;;5.78;1.13;;;21.10;63.20;;;;;;7390197;19;19990;-78
2023/08/04 07:19:33;;;;;;;6.82;1.10;;;21.10;63.00;;;;;;7412923;19;19917;-78
2023/08/04 07:21:59;;;;;;;5.78;1.42;;;21.00;61.30;;;;;;7415388;19;19929;-78
2023/08/04 07:24:26;;;;;;;6.57;1.70;;;21.10;62.30;;;;;;7410855;19;19939;-78
2023/08/04 07:26:51;;;;;;;;;;;21.20;62.20;;;;;;7413950;19;19918;-78
2023/08/04 07:29:17;;;;;;;5.35;0.95;;;21.30;61.80;;;;;;7413461;19;19918;-78
2023/08/04 07:31:43;;;;;;;9.18;1.30;;;21.30;61.30;;;;;;7418428;19;19922;-78
2023/08/04 07:34:09;;;;;;;5.53;1.10;;;21.30;61.50;;;;;;7412606;19;19924;-79
2023/08/04 07:36:35;;;;;;;4.38;1.15;;;21.30;61.80;;;;;;7391951;19;19921;-78
2023/08/04 07:39:01;;;;;;;6.10;1.63;;;21.40;61.60;;;;;;7415499;19;19939;-78
2023/08/04 07:41:29;;;;;;;6.43;1.30;;;21.50;61.00;;;;;;7413104;19;19922;-78
2023/08/04 07:43:54;;;;;;;5.30;1.00;;;21.70;60.70;;;;;;7415981;19;19948;-79
2023/08/04 07:46:27;;;;;;;10.55;1.67;;;21.70;60.20;;;;;;7413858;19;20253;-78
2023/08/04 07:48:54;;;;;;;6.10;1.35;;;21.80;60.20;;;;;;7412492;19;19924;-78
2023/08/04 07:51:20;;;;;;;6.50;1.40;;;22.00;59.80;;;;;;7408676;19;19919;-79
2023/08/04 07:53:47;;;;;;;6.03;1.25;;;22.10;59.10;;;;;;7409594;19;20251;-78
2023/08/04 07:56:13;;;;;;;6.35;1.60;;;22.00;57.90;;;;;;7409254;19;19918;-79
2023/08/04 07:58:39;;;;;;;7.03;1.40;;;22.00;58.30;;;;;;7412913;19;19922;-78
2023/08/04 08:01:07;;;;;;;9.15;1.30;;;22.10;58.50;;;;;;7390095;19;19931;-77
2023/08/04 08:03:34;;;;;;;6.68;1.13;;;22.20;58.40;;;;;;7391156;19;19914;-78
2023/08/04 08:06:01;;;;;;;4.68;1.30;;;22.30;57.10;;;;;;7415840;19;20280;-78
2023/08/04 08:08:27;;;;;;;6.07;1.65;;;22.20;56.20;;;;;;7412355;19;19922;-78
2023/08/04 08:10:54;;;;;;;6.28;2.58;;;22.20;56.10;;;;;;7410996;19;19923;-78
2023/08/04 08:13:20;;;;;;;;;;;22.20;56.00;;;;;;7416508;19;19915;-78
2023/08/04 08:15:46;;;;;;;7.45;1.35;;;22.30;55.70;;;;;;7412853;19;19925;-78
2023/08/04 08:18:12;;;;;;;8.40;1.20;;;22.20;55.10;;;;;;7410349;19;19929;-79
2023/08/04 08:20:43;;;;;;;4.47;1.00;;;22.40;56.10;;;;;;7411179;19;19921;-77
2023/08/04 08:23:11;;;;;;;5.25;0.98;;;22.50;55.90;;;;;;7410281;19;20350;-78
2023/08/04 08:25:37;;;;;;;5.82;1.60;;;22.50;55.40;;;;;;7412600;19;19939;-78
2023/08/04 08:28:04;;;;;;;5.10;1.40;;;22.70;55.30;;;;;;7412664;19;19922;-78
2023/08/04 08:30:30;;;;;;;4.18;1.33;;;22.80;54.60;;;;;;7413174;19;19918;-78
2023/08/04 08:32:56;;;;;;;4.60;0.80;;;22.70;54.10;;;;;;7415276;19;19927;-78
2023/08/04 08:35:22;;;;;;;7.25;1.00;;;22.80;54.10;;;;;;7408991;19;19913;-77
2023/08/04 08:37:47;;;;;;;5.80;1.70;;;22.90;53.20;;;;;;7410905;19;19971;-78
2023/08/04 08:40:14;;;;;;;4.80;1.35;;;22.90;53.60;;;;;;7411615;19;19918;-78
2023/08/04 08:42:40;;;;;;;4.25;1.00;;;23.10;53.90;;;;;;7412398;19;20627;-78
2023/08/04 08:45:06;;;;;;;8.88;1.10;;;23.40;53.10;;;;;;7409861;19;19926;-78
2023/08/04 08:47:36;;;;;;;8.73;1.73;;;24.40;52.50;;;;;;7413050;19;19926;-79
2023/08/04 08:50:05;;;;;;;4.20;1.30;;;25.30;49.10;;;;;;7416230;19;19918;-79
2023/08/04 08:52:37;;;;;;;4.35;1.10;;;27.00;46.20;;;;;;7417534;19;19915;-79
2023/08/04 08:55:03;;;;;;;4.20;1.33;;;28.20;42.30;;;;;;7416033;19;19918;-78
2023/08/04 08:57:30;;;;;;;5.10;1.27;;;28.50;40.60;;;;;;7415955;19;19915;-79
2023/08/04 09:00:05;;;;;;;6.78;1.90;;;28.80;40.00;;;;;;7416505;19;19926;-79
2023/08/04 09:02:31;;;;;;;6.20;2.15;;;30.00;38.40;;;;;;7414193;19;19921;-79
2023/08/04 09:04:57;;;;;;;5.10;1.60;;;30.40;35.80;;;;;;7417620;19;19929;-78
2023/08/04 09:07:24;;;;;;;5.55;1.85;;;30.60;35.20;;;;;;7421248;19;19930;-79
2023/08/04 09:09:49;;;;;;;5.57;1.92;;;31.00;33.30;;;;;;7419246;19;19949;-79
2023/08/04 09:12:16;;;;;;;;;;;31.70;33.00;;;;;;7417656;19;19988;-78
2023/08/04 09:14:51;;;;;;;6.30;1.73;;;31.20;31.80;;;;;;7420033;19;20029;-80
2023/08/04 09:17:37;;;;;;;13.73;2.00;;;31.30;32.10;;;;;;7415902;19;19914;-79
2023/08/04 09:20:06;;;;;;;11.52;2.53;;;31.80;30.80;;;;;;7415414;19;19935;-80
2023/08/04 09:22:37;;;;;;;9.48;2.22;;;31.90;29.70;;;;;;7415790;19;19910;-79
2023/08/04 09:25:05;;;;;;;5.30;1.88;;;32.60;28.90;;;;;;7417991;19;19915;-80
2023/08/04 09:27:37;;;;;;;3.85;1.50;;;32.70;27.70;;;;;;7416575;19;19956;-79
2023/08/04 09:30:09;;;;;;;4.30;1.73;;;32.20;27.40;;;;;;7412272;19;19990;-78
2023/08/04 09:32:48;;;;;;;4.22;2.85;;;31.40;27.70;;;;;;7416371;19;20245;-79
2023/08/04 09:35:17;;;;;;;4.65;2.15;;;30.20;28.10;;;;;;7415049;19;20241;-80
2023/08/04 09:37:43;;;;;;;4.80;1.88;;;30.10;29.40;;;;;;7415619;19;19930;-79
2023/08/04 09:40:18;;;;;;;5.78;3.25;;;30.20;28.00;;;;;;7416454;19;20271;-79
2023/08/04 09:42:44;;;;;;;4.90;3.15;;;31.00;27.30;;;;;;7417704;19;20318;-78
2023/08/04 09:45:18;;;;;;;4.90;2.03;;;31.80;27.60;;;;;;7417952;19;19919;-80
2023/08/04 09:47:51;;;;;;;4.75;1.80;;;31.50;26.80;;;;;;7419460;19;19994;-79
2023/08/04 09:50:19;;;;;;;6.32;1.88;;;32.50;26.40;;;;;;7416082;19;19922;-79
2023/08/04 09:52:45;;;;;;;6.35;2.42;;;33.50;25.70;;;;;;7415822;19;19925;-79
2023/08/04 09:55:11;;;;;;;5.25;1.98;;;34.20;25.30;;;;;;7416043;19;19915;-79
2023/08/04 09:57:40;;;;;;;6.78;1.90;;;34.60;24.40;;;;;;7418900;19;19914;-79
2023/08/04 10:00:08;;;;;;;4.75;1.77;;;34.50;22.70;;;;;;7416168;19;19911;-81
2023/08/04 10:02:35;;;;;;;4.60;2.15;;;34.90;22.00;;;;;;7418474;19;20361;-80
2023/08/04 10:05:02;;;;;;;6.20;2.55;;;33.80;23.40;;;;;;7421155;19;19911;-79
2023/08/04 10:07:30;;;;;;;10.05;2.55;;;33.40;25.30;;;;;;7423959;19;19918;-80
2023/08/04 10:09:58;;;;;;;7.93;2.13;;;33.00;25.50;;;;;;7426063;19;19918;-79
2023/08/04 10:12:25;;;;;;;7.82;2.38;;;32.90;26.30;;;;;;7421216;19;20323;-80
2023/08/04 10:14:50;;;;;;;6.85;2.65;;;33.60;25.50;;;;;;7421183;19;19929;-80
2023/08/04 10:17:18;;;;;;;9.82;2.33;;;33.80;25.30;;;;;;7420660;19;19915;-78
2023/08/04 10:19:44;;;;;;;6.13;2.17;;;33.30;26.00;;;;;;7420455;19;19915;-80
2023/08/04 10:22:11;;;;;;;6.65;2.58;;;32.40;26.30;;;;;;7418283;19;19939;-80
2023/08/04 10:24:41;;;;;;;8.75;2.33;;;31.80;27.10;;;;;;7419711;19;19915;-79
2023/08/04 10:27:21;;;;;;;8.10;2.50;;;32.30;27.10;;;;;;7417985;19;19979;-80
2023/08/04 10:30:09;;;;;;;6.70;2.13;;;32.30;27.40;;;;;;7423567;19;19946;-79
2023/08/04 10:32:37;;;;;;;8.18;2.40;;;32.00;27.60;;;;;;7418009;19;19971;-79
2023/08/04 10:35:05;;;;;;;8.20;2.95;;;32.90;27.50;;;;;;7422403;19;19922;-79
2023/08/04 10:37:45;;;;;;;8.75;2.47;;;32.80;27.30;;;;;;7425068;19;19915;-79
2023/08/04 10:40:12;;;;;;;7.95;2.38;;;31.70;27.60;;;;;;7423213;19;19914;-79
2023/08/04 10:43:04;;;;;;;6.10;2.22;;;31.60;27.90;;;;;;7425626;19;19994;-79
2023/08/04 10:45:50;;;;;;;5.32;2.28;;;30.70;28.80;;;;;;7417226;19;19917;-79
2023/08/04 10:48:20;;;;;;;4.93;2.53;;;30.50;29.70;;;;;;7418513;19;19921;-79
2023/08/04 10:50:47;;;;;;;8.02;2.38;;;30.10;30.10;;;;;;7419925;19;19914;-79
2023/08/04 10:53:15;;;;;;;8.30;2.22;;;30.60;29.90;;;;;;7416236;19;20303;-79
2023/08/04 10:55:57;;;;;;;7.18;2.35;;;31.00;29.80;;;;;;7418571;19;19930;-79
2023/08/04 10:58:24;;;;;;;6.47;3.08;;;31.20;29.50;;;;;;7418003;19;19935;-79
2023/08/04 11:00:52;;;;;;;7.32;2.15;;;31.30;29.80;;;;;;7417801;19;20554;-79
2023/08/04 11:03:21;;;;;;;8.75;2.55;;;31.20;29.20;;;;;;7418554;19;19910;-79
2023/08/04 11:05:49;;;;;;;7.15;1.95;;;30.80;29.80;;;;;;7418537;19;19931;-80
2023/08/04 11:08:17;;;;;;;6.53;2.05;;;30.10;31.10;;;;;;7418833;19;19922;-78
2023/08/04 11:10:51;;;;;;;6.85;1.92;;;30.00;31.20;;;;;;7419907;19;19919;-79
2023/08/04 11:13:18;;;;;;;7.80;2.35;;;28.10;32.80;;;;;;7419574;19;19911;-80
2023/08/04 11:15:45;;;;;;;5.63;2.17;;;28.10;33.90;;;;;;7417554;19;19952;-79
2023/08/04 11:18:27;;;;;;;9.48;2.50;;;28.00;35.00;;;;;;7412591;19;19926;-79
2023/08/04 11:20:53;;;;;;;5.65;2.25;;;27.70;34.30;;;;;;7417333;19;19915;-78
2023/08/04 11:23:28;;;;;;;9.15;2.25;;;27.80;35.00;;;;;;7413987;19;19937;-79
2023/08/04 11:25:54;;;;;;;6.80;1.95;;;27.90;35.50;;;;;;7415536;19;19918;-80
2023/08/04 11:28:21;;;;;;;6.95;2.72;;;28.80;35.00;;;;;;7414006;19;19915;-78
2023/08/04 11:30:47;;;;;;;5.63;2.30;;;28.90;34.80;;;;;;7415331;19;19965;-80
2023/08/04 11:33:15;;;;;;;7.15;1.92;;;29.50;33.80;;;;;;7414288;19;19944;-79
2023/08/04 11:35:41;;;;;;;7.22;2.33;;;29.40;33.90;;;;;;7413662;19;19907;-78
2023/08/04 11:38:07;;;;;;;8.00;2.45;;;29.10;34.10;;;;;;7411867;19;20042;-80
2023/08/04 11:40:34;;;;;;;7.38;1.83;;;27.20;35.50;;;;;;7410785;19;19911;-78
2023/08/04 11:43:01;;;;;;;7.90;2.00;;;28.30;35.90;;;;;;7411583;19;19927;-78
2023/08/04 11:45:32;;;;;;;8.52;2.05;;;27.00;36.50;;;;;;7379582;19;19962;-79
2023/08/04 11:47:58;;;;;;;7.70;2.28;;;28.40;36.10;;;;;;7410440;19;19982;-78
2023/08/04 11:50:25;;;;;;;8.00;2.00;;;28.20;36.10;;;;;;7414833;19;19919;-80
2023/08/04 11:52:52;;;;;;;7.53;2.15;;;28.20;37.00;;;;;;7420006;19;19921;-80
2023/08/04 11:55:19;;;;;;;8.15;2.85;;;28.30;37.60;;;;;;7421426;19;20272;-79
2023/08/04 11:57:53;;;;;;;7.47;1.90;;;28.70;37.00;;;;;;7419379;19;19926;-79
2023/08/04 12:00:33;;;;;;;9.48;2.08;;;27.80;37.70;;;;;;7420885;19;19954;-80
2023/08/04 12:03:01;;;;;;;5.35;2.17;;;28.50;37.00;;;;;;7415324;19;19938;-78
2023/08/04 12:05:37;;;;;;;7.20;1.88;;;28.20;35.90;;;;;;7416105;19;19915;-79
2023/08/04 12:08:12;;;;;;;8.73;2.28;;;27.40;37.30;;;;;;7419654;19;19922;-78
2023/08/04 12:10:38;;;;;;;7.47;2.47;;;28.50;35.40;;;;;;7419052;19;19927;-79
2023/08/04 12:13:04;;;;;;;8.77;2.38;;;29.20;34.50;;;;;;7421907;19;19910;-79
2023/08/04 12:15:30;;;;;;;8.00;2.28;;;29.00;34.50;;;;;;7420672;19;20023;-78
2023/08/04 12:17:56;;;;;;;;;;;28.40;36.50;;;;;;7422620;19;19933;-79
2023/08/04 12:20:22;;;;;;;6.40;2.40;;;29.30;35.80;;;;;;7419423;19;19942;-78
2023/08/04 12:22:48;;;;;;;;;;;30.10;34.40;;;;;;7421245;19;20333;-79
2023/08/04 12:25:14;;;;;;;8.90;2.80;;;28.20;35.40;;;;;;7420173;19;19911;-80
2023/08/04 12:27:40;;;;;;;8.25;2.35;;;29.10;35.60;;;;;;7420006;19;19955;-79
2023/08/04 12:30:07;;;;;;;6.78;2.28;;;28.90;35.10;;;;;;7416618;19;19926;-79
2023/08/04 12:32:33;;;;;;;6.43;1.85;;;28.80;34.90;;;;;;7415917;19;19911;-78
2023/08/04 12:35:09;;;;;;;;;;;;;;;;;;;;;
2023/08/04 12:37:36;;;;;;;6.70;2.33;;;29.60;35.50;;;;;;7395917;19;20801;-79
2023/08/04 12:40:02;;;;;;;;;;;29.80;34.80;;;;;;7420566;19;19914;-79
2023/08/04 12:42:28;;;;;;;5.50;1.83;;;29.50;35.30;;;;;;7420042;19;19925;-79
2023/08/04 12:44:56;;;;;;;;;;;30.00;34.10;;;;;;7397560;19;20291;-82
2023/08/04 12:47:23;;;;;;;6.72;2.50;;;29.50;35.80;;;;;;7418097;19;19938;-80
2023/08/04 12:49:49;;;;;;;5.38;2.10;;;30.00;35.00;;;;;;7424295;19;19921;-79
2023/08/04 12:52:15;;;;;;;;;;;29.30;34.80;;;;;;7424255;19;20291;-79